createdAt,value
2019-06-10T00:00:11.808Z,18.86
2019-06-10T00:01:06.971Z,18.86
2019-06-10T00:02:05.269Z,18.80
2019-06-10T00:03:05.603Z,18.77
2019-06-10T00:04:06.904Z,18.74
2019-06-10T00:05:05.592Z,18.83
2019-06-10T00:06:05.295Z,18.81
2019-06-10T00:07:05.413Z,18.75
2019-06-10T00:08:05.420Z,18.78
2019-06-10T00:09:06.440Z,18.77
2019-06-10T00:10:05.660Z,18.73
2019-06-10T00:11:05.042Z,18.78
2019-06-10T00:12:04.727Z,18.74
2019-06-10T00:13:05.377Z,18.70
2019-06-10T00:14:05.716Z,18.75
2019-06-10T00:15:04.937Z,18.75
2019-06-10T00:16:05.074Z,18.75
2019-06-10T00:17:05.094Z,18.75
2019-06-10T00:18:26.251Z,18.75
2019-06-10T00:19:06.811Z,18.75
2019-06-10T00:20:05.440Z,18.74
2019-06-10T00:21:05.567Z,18.77
2019-06-10T00:22:05.299Z,18.73
2019-06-10T00:23:05.619Z,18.74
2019-06-10T00:24:05.217Z,18.71
2019-06-10T00:25:05.501Z,18.73
2019-06-10T00:26:06.059Z,18.75
2019-06-10T00:27:05.563Z,18.71
2019-06-10T00:28:05.740Z,18.83
2019-06-10T00:29:05.786Z,18.78
2019-06-10T00:30:06.085Z,18.80
2019-06-10T00:31:05.448Z,18.73
2019-06-10T00:32:06.551Z,18.73
2019-06-10T00:33:06.062Z,18.77
2019-06-10T00:34:05.017Z,18.65
2019-06-10T00:35:05.870Z,18.80
2019-06-10T00:36:07.054Z,18.74
2019-06-10T00:37:06.307Z,18.75
2019-06-10T00:38:07.032Z,18.73
2019-06-10T00:39:06.518Z,18.71
2019-06-10T00:40:05.415Z,18.70
2019-06-10T00:41:06.893Z,18.56
2019-06-10T00:42:06.653Z,18.58
2019-06-10T00:43:05.435Z,18.58
2019-06-10T00:44:05.260Z,18.65
2019-06-10T00:45:06.195Z,18.52
2019-06-10T00:46:05.863Z,18.58
2019-06-10T00:47:06.318Z,18.58
2019-06-10T00:48:12.409Z,18.53
2019-06-10T00:49:05.862Z,18.45
2019-06-10T00:50:08.137Z,18.45
2019-06-10T00:51:04.545Z,18.47
2019-06-10T00:52:04.644Z,18.50
2019-06-10T00:53:05.808Z,18.53
2019-06-10T00:54:05.343Z,18.50
2019-06-10T00:55:04.882Z,18.55
2019-06-10T00:56:06.465Z,18.55
2019-06-10T00:57:05.473Z,18.56
2019-06-10T00:58:04.482Z,18.62
2019-06-10T00:59:04.182Z,18.60
2019-06-10T01:00:15.889Z,18.59
2019-06-10T01:01:04.250Z,18.63
2019-06-10T01:02:05.053Z,18.62
2019-06-10T01:03:04.077Z,18.70
2019-06-10T01:04:06.529Z,18.70
2019-06-10T01:05:05.059Z,18.60
2019-06-10T01:06:04.719Z,18.70
2019-06-10T01:07:04.359Z,18.71
2019-06-10T01:08:04.607Z,18.66
2019-06-10T01:09:04.541Z,18.71
2019-06-10T01:10:04.720Z,18.62
2019-06-10T01:11:09.972Z,18.70
2019-06-10T01:12:04.839Z,18.71
2019-06-10T01:13:05.069Z,18.70
2019-06-10T01:14:05.175Z,18.73
2019-06-10T01:15:05.198Z,18.56
2019-06-10T01:16:05.333Z,18.62
2019-06-10T01:17:05.418Z,18.60
2019-06-10T01:18:04.070Z,18.60
2019-06-10T01:19:04.073Z,18.60
2019-06-10T01:20:04.071Z,18.62
2019-06-10T01:21:04.067Z,18.56
2019-06-10T01:22:04.068Z,18.58
2019-06-10T01:23:04.988Z,18.59
2019-06-10T01:24:05.031Z,18.59
2019-06-10T01:25:05.120Z,18.59
2019-06-10T01:26:05.618Z,18.55
2019-06-10T01:27:04.065Z,18.58
2019-06-10T01:28:04.064Z,18.56
2019-06-10T01:29:04.065Z,18.56
2019-06-10T01:30:10.202Z,18.55
2019-06-10T01:31:04.065Z,18.56
2019-06-10T01:32:05.177Z,18.50
2019-06-10T01:33:04.064Z,18.52
2019-06-10T01:34:05.357Z,18.52
2019-06-10T01:35:04.064Z,18.50
2019-06-10T01:36:04.066Z,18.53
2019-06-10T01:37:04.063Z,18.56
2019-06-10T01:38:04.063Z,18.45
2019-06-10T01:39:04.063Z,18.52
2019-06-10T01:40:04.064Z,18.52
2019-06-10T01:41:04.061Z,18.59
2019-06-10T01:42:04.064Z,18.59
2019-06-10T01:43:04.060Z,18.52
2019-06-10T01:44:04.061Z,18.56
2019-06-10T01:45:04.061Z,18.47
2019-06-10T01:46:04.059Z,18.55
2019-06-10T01:47:04.061Z,18.52
2019-06-10T01:48:04.059Z,18.47
2019-06-10T01:49:04.058Z,18.56
2019-06-10T01:50:04.060Z,18.58
2019-06-10T01:51:04.060Z,18.55
2019-06-10T01:52:04.059Z,18.52
2019-06-10T01:53:04.059Z,18.50
2019-06-10T01:54:04.055Z,18.47
2019-06-10T01:55:04.058Z,18.55
2019-06-10T01:56:04.056Z,18.53
2019-06-10T01:57:04.070Z,18.45
2019-06-10T01:58:04.062Z,18.52
2019-06-10T01:59:04.056Z,18.47
2019-06-10T02:00:09.329Z,18.50
2019-06-10T02:01:04.061Z,18.41
2019-06-10T02:02:04.056Z,18.43
2019-06-10T02:03:04.055Z,18.37
2019-06-10T02:04:04.057Z,18.37
2019-06-10T02:05:04.056Z,18.50
2019-06-10T02:06:04.054Z,18.37
2019-06-10T02:07:04.055Z,18.41
2019-06-10T02:08:04.055Z,18.38
2019-06-10T02:09:04.053Z,18.41
2019-06-10T02:10:04.053Z,18.40
2019-06-10T02:11:04.053Z,18.37
2019-06-10T02:12:04.052Z,18.38
2019-06-10T02:13:04.051Z,18.38
2019-06-10T02:14:04.051Z,18.31
2019-06-10T02:15:04.051Z,18.37
2019-06-10T02:16:04.051Z,18.33
2019-06-10T02:17:04.049Z,18.33
2019-06-10T02:18:04.053Z,18.37
2019-06-10T02:19:04.351Z,18.31
2019-06-10T02:20:04.053Z,18.40
2019-06-10T02:21:04.049Z,18.37
2019-06-10T02:22:04.049Z,18.37
2019-06-10T02:23:04.047Z,18.35
2019-06-10T02:24:04.046Z,18.38
2019-06-10T02:25:04.044Z,18.34
2019-06-10T02:26:04.077Z,18.37
2019-06-10T02:27:04.051Z,18.37
2019-06-10T02:28:04.046Z,18.41
2019-06-10T02:29:04.044Z,18.38
2019-06-10T02:30:17.843Z,18.41
2019-06-10T02:31:04.096Z,18.35
2019-06-10T02:32:05.103Z,18.45
2019-06-10T02:33:04.046Z,18.41
2019-06-10T02:34:04.043Z,18.41
2019-06-10T02:35:13.614Z,18.45
2019-06-10T02:36:04.882Z,18.35
2019-06-10T02:37:04.971Z,18.45
2019-06-10T02:38:04.041Z,18.41
2019-06-10T02:39:04.725Z,18.43
2019-06-10T02:40:04.703Z,18.38
2019-06-10T02:41:04.922Z,18.41
2019-06-10T02:42:04.683Z,18.43
2019-06-10T02:43:04.039Z,18.47
2019-06-10T02:44:04.572Z,18.49
2019-06-10T02:45:04.209Z,18.40
2019-06-10T02:46:04.711Z,18.43
2019-06-10T02:47:04.042Z,18.38
2019-06-10T02:48:04.384Z,18.33
2019-06-10T02:49:21.508Z,18.41
2019-06-10T02:50:08.359Z,18.49
2019-06-10T02:51:04.268Z,18.49
2019-06-10T02:52:04.051Z,18.44
2019-06-10T02:53:04.168Z,18.49
2019-06-10T02:54:04.738Z,18.41
2019-06-10T02:55:04.583Z,18.45
2019-06-10T02:56:04.331Z,18.45
2019-06-10T02:57:04.528Z,18.40
2019-06-10T02:58:04.111Z,18.37
2019-06-10T02:59:04.038Z,18.43
2019-06-10T03:00:10.604Z,18.41
2019-06-10T03:01:04.531Z,18.43
2019-06-10T03:02:04.036Z,18.40
2019-06-10T03:03:04.102Z,18.50
2019-06-10T03:04:04.724Z,18.43
2019-06-10T03:05:04.801Z,18.34
2019-06-10T03:06:07.472Z,18.41
2019-06-10T03:07:04.034Z,18.35
2019-06-10T03:08:04.096Z,18.38
2019-06-10T03:09:04.032Z,18.35
2019-06-10T03:10:04.831Z,18.37
2019-06-10T03:11:04.172Z,18.38
2019-06-10T03:12:04.888Z,18.40
2019-06-10T03:13:04.029Z,18.35
2019-06-10T03:14:04.030Z,18.37
2019-06-10T03:15:04.031Z,18.47
2019-06-10T03:16:04.027Z,18.43
2019-06-10T03:17:04.029Z,18.47
2019-06-10T03:18:40.007Z,18.34
2019-06-10T03:19:04.029Z,18.45
2019-06-10T03:20:04.041Z,18.45
2019-06-10T03:21:04.025Z,18.43
2019-06-10T03:22:04.025Z,18.40
2019-06-10T03:23:04.029Z,18.49
2019-06-10T03:24:04.028Z,18.44
2019-06-10T03:25:04.025Z,18.34
2019-06-10T03:26:04.477Z,18.41
2019-06-10T03:27:04.034Z,18.50
2019-06-10T03:28:04.023Z,18.44
2019-06-10T03:29:04.024Z,18.35
2019-06-10T03:30:14.745Z,18.40
2019-06-10T03:31:05.708Z,18.43
2019-06-10T03:32:05.161Z,18.43
2019-06-10T03:33:05.003Z,18.37
2019-06-10T03:34:05.276Z,18.41
2019-06-10T03:35:05.456Z,18.44
2019-06-10T03:36:04.018Z,18.38
2019-06-10T03:37:04.017Z,18.49
2019-06-10T03:38:04.016Z,18.47
2019-06-10T03:39:04.017Z,18.45
2019-06-10T03:40:04.019Z,18.44
2019-06-10T03:41:04.019Z,18.47
2019-06-10T03:42:04.014Z,18.33
2019-06-10T03:43:04.015Z,18.38
2019-06-10T03:44:04.014Z,18.40
2019-06-10T03:45:04.013Z,18.40
2019-06-10T03:46:04.013Z,18.41
2019-06-10T03:47:04.011Z,18.35
2019-06-10T03:48:04.014Z,18.38
2019-06-10T03:49:04.011Z,18.41
2019-06-10T03:50:04.011Z,18.35
2019-06-10T03:51:04.011Z,18.37
2019-06-10T03:52:04.011Z,18.35
2019-06-10T03:53:04.448Z,18.37
2019-06-10T03:54:04.008Z,18.38
2019-06-10T03:55:04.007Z,18.50
2019-06-10T03:56:04.005Z,18.43
2019-06-10T03:57:04.007Z,18.38
2019-06-10T03:58:04.006Z,18.35
2019-06-10T03:59:04.014Z,18.49
2019-06-10T04:00:10.360Z,18.41
2019-06-10T04:01:04.012Z,18.40
2019-06-10T04:02:04.003Z,18.41
2019-06-10T04:03:04.004Z,18.43
2019-06-10T04:04:04.002Z,18.37
2019-06-10T04:05:04.002Z,18.38
2019-06-10T04:06:04.063Z,18.43
2019-06-10T04:07:04.129Z,18.47
2019-06-10T04:08:04.000Z,18.45
2019-06-10T04:09:04.001Z,18.47
2019-06-10T04:10:03.998Z,18.49
2019-06-10T04:11:04.001Z,18.44
2019-06-10T04:12:03.998Z,18.44
2019-06-10T04:13:03.996Z,18.44
2019-06-10T04:14:03.997Z,18.45
2019-06-10T04:15:03.996Z,18.44
2019-06-10T04:16:03.996Z,18.43
2019-06-10T04:17:03.995Z,18.41
2019-06-10T04:18:04.166Z,18.43
2019-06-10T04:19:03.992Z,18.41
2019-06-10T04:20:11.531Z,18.43
2019-06-10T04:21:03.994Z,18.38
2019-06-10T04:22:03.993Z,18.40
2019-06-10T04:23:04.005Z,18.43
2019-06-10T04:24:03.994Z,18.44
2019-06-10T04:25:03.991Z,18.45
2019-06-10T04:26:03.995Z,18.44
2019-06-10T04:27:03.990Z,18.41
2019-06-10T04:28:03.989Z,18.53
2019-06-10T04:29:03.992Z,18.52
2019-06-10T04:30:03.993Z,18.52
2019-06-10T04:31:03.987Z,18.53
2019-06-10T04:32:03.987Z,18.58
2019-06-10T04:33:03.986Z,18.56
2019-06-10T04:34:03.989Z,18.56
2019-06-10T04:35:03.989Z,18.58
2019-06-10T04:36:03.986Z,18.60
2019-06-10T04:37:03.987Z,18.55
2019-06-10T04:38:03.986Z,18.62
2019-06-10T04:39:03.986Z,18.62
2019-06-10T04:40:03.984Z,18.60
2019-06-10T04:41:03.985Z,18.66
2019-06-10T04:42:03.985Z,18.62
2019-06-10T04:43:03.986Z,18.65
2019-06-10T04:44:03.983Z,18.56
2019-06-10T04:45:03.982Z,18.62
2019-06-10T04:46:03.984Z,18.73
2019-06-10T04:47:03.982Z,18.59
2019-06-10T04:48:03.981Z,18.62
2019-06-10T04:49:03.982Z,18.60
2019-06-10T04:50:03.989Z,18.56
2019-06-10T04:51:03.984Z,18.59
2019-06-10T04:52:03.980Z,18.74
2019-06-10T04:53:03.981Z,18.71
2019-06-10T04:54:03.979Z,18.68
2019-06-10T04:55:03.979Z,18.68
2019-06-10T04:56:03.979Z,18.65
2019-06-10T04:57:03.979Z,18.70
2019-06-10T04:58:03.978Z,18.75
2019-06-10T04:59:03.979Z,18.74
2019-06-10T05:00:11.008Z,18.70
2019-06-10T05:01:03.977Z,18.70
2019-06-10T05:02:05.765Z,18.73
2019-06-10T05:03:03.978Z,18.77
2019-06-10T05:04:03.974Z,18.77
2019-06-10T05:05:03.976Z,18.81
2019-06-10T05:06:03.975Z,18.75
2019-06-10T05:07:03.976Z,18.81
2019-06-10T05:08:03.974Z,18.80
2019-06-10T05:09:04.286Z,18.71
2019-06-10T05:10:03.979Z,18.84
2019-06-10T05:11:04.001Z,18.78
2019-06-10T05:12:03.975Z,18.80
2019-06-10T05:13:03.975Z,18.89
2019-06-10T05:14:03.975Z,18.78
2019-06-10T05:15:03.975Z,18.84
2019-06-10T05:16:04.028Z,18.89
2019-06-10T05:17:03.972Z,18.89
2019-06-10T05:18:03.971Z,18.88
2019-06-10T05:19:04.044Z,18.96
2019-06-10T05:20:03.970Z,18.92
2019-06-10T05:21:03.970Z,18.92
2019-06-10T05:22:03.969Z,19.00
2019-06-10T05:23:03.975Z,18.93
2019-06-10T05:24:03.969Z,19.07
2019-06-10T05:25:03.973Z,19.12
2019-06-10T05:26:03.981Z,19.14
2019-06-10T05:27:03.971Z,19.15
2019-06-10T05:28:03.969Z,19.09
2019-06-10T05:29:03.969Z,19.14
2019-06-10T05:30:03.969Z,19.15
2019-06-10T05:31:03.968Z,19.16
2019-06-10T05:32:03.972Z,19.24
2019-06-10T05:33:03.969Z,19.30
2019-06-10T05:34:03.970Z,19.27
2019-06-10T05:35:03.974Z,19.37
2019-06-10T05:36:03.968Z,19.41
2019-06-10T05:37:03.970Z,19.34
2019-06-10T05:38:03.973Z,19.41
2019-06-10T05:39:03.972Z,19.39
2019-06-10T05:40:03.971Z,19.45
2019-06-10T05:41:03.972Z,19.47
2019-06-10T05:42:03.983Z,19.48
2019-06-10T05:43:03.968Z,19.49
2019-06-10T05:44:03.970Z,19.51
2019-06-10T05:45:03.973Z,19.45
2019-06-10T05:46:03.971Z,19.49
2019-06-10T05:47:04.227Z,19.51
2019-06-10T05:48:03.971Z,19.48
2019-06-10T05:49:03.973Z,19.48
2019-06-10T05:50:03.972Z,19.49
2019-06-10T05:51:06.797Z,19.45
2019-06-10T05:52:03.973Z,19.47
2019-06-10T05:53:03.971Z,19.44
2019-06-10T05:54:03.974Z,19.45
2019-06-10T05:55:03.973Z,19.54
2019-06-10T05:56:03.974Z,19.62
2019-06-10T05:57:03.976Z,19.59
2019-06-10T05:58:03.974Z,19.55
2019-06-10T05:59:04.463Z,19.56
2019-06-10T06:00:11.006Z,19.59
2019-06-10T06:01:03.973Z,19.54
2019-06-10T06:02:03.976Z,19.63
2019-06-10T06:03:03.974Z,19.59
2019-06-10T06:04:03.976Z,19.56
2019-06-10T06:05:03.976Z,19.55
2019-06-10T06:06:03.976Z,19.59
2019-06-10T06:07:03.977Z,19.64
2019-06-10T06:08:08.309Z,19.56
2019-06-10T06:09:03.976Z,19.67
2019-06-10T06:10:03.977Z,19.66
2019-06-10T06:11:03.976Z,19.69
2019-06-10T06:12:03.981Z,19.69
2019-06-10T06:13:03.977Z,19.70
2019-06-10T06:14:03.976Z,19.73
2019-06-10T06:15:03.978Z,19.76
2019-06-10T06:16:03.977Z,19.71
2019-06-10T06:17:03.976Z,19.66
2019-06-10T06:18:10.062Z,19.67
2019-06-10T06:19:03.980Z,19.79
2019-06-10T06:20:03.979Z,19.84
2019-06-10T06:21:20.495Z,19.85
2019-06-10T06:22:03.979Z,19.92
2019-06-10T06:23:03.980Z,19.89
2019-06-10T06:24:04.255Z,19.94
2019-06-10T06:25:04.066Z,20.00
2019-06-10T06:26:04.182Z,20.06
2019-06-10T06:27:03.989Z,20.07
2019-06-10T06:28:03.982Z,20.11
2019-06-10T06:29:03.987Z,20.14
2019-06-10T06:30:10.873Z,20.16
2019-06-10T06:31:03.985Z,20.21
2019-06-10T06:32:03.986Z,20.16
2019-06-10T06:33:03.985Z,20.16
2019-06-10T06:34:03.987Z,20.24
2019-06-10T06:35:03.987Z,20.36
2019-06-10T06:36:03.988Z,20.37
2019-06-10T06:37:03.989Z,20.26
2019-06-10T06:38:03.989Z,20.34
2019-06-10T06:39:03.993Z,20.41
2019-06-10T06:40:03.990Z,20.41
2019-06-10T06:41:03.990Z,20.41
2019-06-10T06:42:03.991Z,20.47
2019-06-10T06:43:03.993Z,20.44
2019-06-10T06:44:03.994Z,20.52
2019-06-10T06:45:03.993Z,20.62
2019-06-10T06:46:03.997Z,20.56
2019-06-10T06:47:04.017Z,20.56
2019-06-10T06:48:03.998Z,20.60
2019-06-10T06:49:03.998Z,20.55
2019-06-10T06:50:03.999Z,20.59
2019-06-10T06:51:08.085Z,20.52
2019-06-10T06:52:04.141Z,20.59
2019-06-10T06:53:23.396Z,20.69
2019-06-10T06:54:04.001Z,20.78
2019-06-10T06:55:04.005Z,20.74
2019-06-10T06:56:04.033Z,20.70
2019-06-10T06:57:04.011Z,20.88
2019-06-10T06:58:04.006Z,20.93
2019-06-10T06:59:04.008Z,20.95
2019-06-10T07:00:34.098Z,20.97
2019-06-10T07:01:10.613Z,20.92
2019-06-10T07:02:04.010Z,21.02
2019-06-10T07:03:04.017Z,21.12
2019-06-10T07:04:04.012Z,21.12
2019-06-10T07:05:04.012Z,21.03
2019-06-10T07:06:04.013Z,21.09
2019-06-10T07:07:04.017Z,20.93
2019-06-10T07:08:04.017Z,21.03
2019-06-10T07:09:07.922Z,21.06
2019-06-10T07:10:04.020Z,21.06
2019-06-10T07:11:04.023Z,20.99
2019-06-10T07:12:04.024Z,21.02
2019-06-10T07:13:04.033Z,21.06
2019-06-10T07:14:04.026Z,21.12
2019-06-10T07:15:04.400Z,21.03
2019-06-10T07:16:04.034Z,21.00
2019-06-10T07:17:04.099Z,21.15
2019-06-10T07:18:04.033Z,21.14
2019-06-10T07:19:04.034Z,21.20
2019-06-10T07:20:04.034Z,21.17
2019-06-10T07:21:04.031Z,21.22
2019-06-10T07:22:12.290Z,21.22
2019-06-10T07:23:04.037Z,21.29
2019-06-10T07:24:04.037Z,21.32
2019-06-10T07:25:06.514Z,21.35
2019-06-10T07:26:04.042Z,21.33
2019-06-10T07:27:04.041Z,21.36
2019-06-10T07:28:04.043Z,21.40
2019-06-10T07:29:04.044Z,21.37
2019-06-10T07:30:11.454Z,21.42
2019-06-10T07:31:19.493Z,21.45
2019-06-10T07:32:04.047Z,21.54
2019-06-10T07:33:04.049Z,21.62
2019-06-10T07:34:04.052Z,21.60
2019-06-10T07:35:04.053Z,21.67
2019-06-10T07:36:04.054Z,21.70
2019-06-10T07:37:04.057Z,21.72
2019-06-10T07:38:04.058Z,21.79
2019-06-10T07:39:04.061Z,21.93
2019-06-10T07:40:04.061Z,21.99
2019-06-10T07:41:04.063Z,22.04
2019-06-10T07:42:04.065Z,22.04
2019-06-10T07:43:04.074Z,22.15
2019-06-10T07:44:04.068Z,22.14
2019-06-10T07:45:04.074Z,22.22
2019-06-10T07:46:04.081Z,22.20
2019-06-10T07:47:04.077Z,22.25
2019-06-10T07:48:04.074Z,22.20
2019-06-10T07:49:04.082Z,22.32
2019-06-10T07:50:04.080Z,22.38
2019-06-10T07:51:04.082Z,22.41
2019-06-10T07:52:15.888Z,22.50
2019-06-10T07:53:04.086Z,22.51
2019-06-10T07:54:04.088Z,22.59
2019-06-10T07:55:04.095Z,22.62
2019-06-10T07:56:04.098Z,22.55
2019-06-10T07:57:04.095Z,22.72
2019-06-10T07:58:04.097Z,22.69
2019-06-10T07:59:04.135Z,22.76
2019-06-10T08:00:04.101Z,22.84
2019-06-10T08:01:04.104Z,22.91
2019-06-10T08:02:04.107Z,23.05
2019-06-10T08:03:04.107Z,23.17
2019-06-10T08:04:04.110Z,23.12
2019-06-10T08:05:04.117Z,23.18
2019-06-10T08:06:04.119Z,23.27
2019-06-10T08:07:04.119Z,23.36
2019-06-10T08:08:04.122Z,23.34
2019-06-10T08:09:04.122Z,23.40
2019-06-10T08:10:04.127Z,23.44
2019-06-10T08:11:04.131Z,23.44
2019-06-10T08:12:06.038Z,23.50
2019-06-10T08:13:04.140Z,23.48
2019-06-10T08:14:04.753Z,23.62
2019-06-10T08:15:04.141Z,23.63
2019-06-10T08:16:04.145Z,23.61
2019-06-10T08:17:04.145Z,23.55
2019-06-10T08:18:04.425Z,23.61
2019-06-10T08:19:26.326Z,23.65
2019-06-10T08:20:04.151Z,23.65
2019-06-10T08:21:04.164Z,23.73
2019-06-10T08:22:04.158Z,23.76
2019-06-10T08:23:04.162Z,23.73
2019-06-10T08:24:04.163Z,23.78
2019-06-10T08:25:04.897Z,23.92
2019-06-10T08:26:04.180Z,23.95
2019-06-10T08:27:04.188Z,24.13
2019-06-10T08:28:04.175Z,24.17
2019-06-10T08:29:04.542Z,24.33
2019-06-10T08:30:15.288Z,24.38
2019-06-10T08:31:04.185Z,24.61
2019-06-10T08:32:04.194Z,24.61
2019-06-10T08:33:04.194Z,24.78
2019-06-10T08:34:04.195Z,24.88
2019-06-10T08:35:04.196Z,25.14
2019-06-10T08:36:04.299Z,25.43
2019-06-10T08:37:04.691Z,25.70
2019-06-10T08:38:04.209Z,26.00
2019-06-10T08:39:04.213Z,26.31
2019-06-10T08:40:04.218Z,26.55
2019-06-10T08:41:04.248Z,26.74
2019-06-10T08:42:04.222Z,26.88
2019-06-10T08:43:04.489Z,26.89
2019-06-10T08:44:04.230Z,27.03
2019-06-10T08:45:04.233Z,27.14
2019-06-10T08:46:04.240Z,27.30
2019-06-10T08:47:04.246Z,27.40
2019-06-10T08:48:04.246Z,27.59
2019-06-10T08:49:04.368Z,27.68
2019-06-10T08:50:04.264Z,27.77
2019-06-10T08:51:04.278Z,27.68
2019-06-10T08:52:04.267Z,27.67
2019-06-10T08:53:13.611Z,27.64
2019-06-10T08:54:04.272Z,27.65
2019-06-10T08:55:04.278Z,27.60
2019-06-10T08:56:04.282Z,27.65
2019-06-10T08:57:04.706Z,27.65
2019-06-10T08:58:04.560Z,27.63
2019-06-10T08:59:04.299Z,27.74
2019-06-10T09:00:11.741Z,27.71
2019-06-10T09:01:04.310Z,27.83
2019-06-10T09:02:04.335Z,27.96
2019-06-10T09:03:04.378Z,28.17
2019-06-10T09:04:04.323Z,28.15
2019-06-10T09:05:04.996Z,28.23
2019-06-10T09:06:04.327Z,28.33
2019-06-10T09:07:04.443Z,28.42
2019-06-10T09:08:04.335Z,28.56
2019-06-10T09:09:04.348Z,28.62
2019-06-10T09:10:04.345Z,28.85
2019-06-10T09:11:04.352Z,29.16
2019-06-10T09:12:04.712Z,29.31
2019-06-10T09:13:04.363Z,29.44
2019-06-10T09:14:04.365Z,29.69
2019-06-10T09:15:04.373Z,29.75
2019-06-10T09:16:12.926Z,29.84
2019-06-10T09:17:04.381Z,29.86
2019-06-10T09:18:04.386Z,30.03
2019-06-10T09:19:04.394Z,30.08
2019-06-10T09:20:04.402Z,30.10
2019-06-10T09:21:04.405Z,30.15
2019-06-10T09:22:04.407Z,30.21
2019-06-10T09:23:17.892Z,30.30
2019-06-10T09:24:04.416Z,30.51
2019-06-10T09:25:04.423Z,30.75
2019-06-10T09:26:04.432Z,30.91
2019-06-10T09:27:04.436Z,30.85
2019-06-10T09:28:04.442Z,30.73
2019-06-10T09:29:04.447Z,30.66
2019-06-10T09:30:04.457Z,30.51
2019-06-10T09:31:05.492Z,30.43
2019-06-10T09:32:04.467Z,30.35
2019-06-10T09:33:04.953Z,30.44
2019-06-10T09:34:04.478Z,30.48
2019-06-10T09:35:04.485Z,30.51
2019-06-10T09:36:04.489Z,30.73
2019-06-10T09:37:04.495Z,30.81
2019-06-10T09:38:04.501Z,30.94
2019-06-10T09:39:04.510Z,30.97
2019-06-10T09:40:04.511Z,31.06
2019-06-10T09:41:06.226Z,30.96
2019-06-10T09:42:06.513Z,31.00
2019-06-10T09:43:05.169Z,30.96
2019-06-10T09:44:04.537Z,30.87
2019-06-10T09:45:04.545Z,30.70
2019-06-10T09:46:04.549Z,30.63
2019-06-10T09:47:04.560Z,30.61
2019-06-10T09:48:04.571Z,30.61
2019-06-10T09:49:04.579Z,30.66
2019-06-10T09:50:04.571Z,30.70
2019-06-10T09:51:04.577Z,30.75
2019-06-10T09:52:04.583Z,30.77
2019-06-10T09:53:04.607Z,30.69
2019-06-10T09:54:06.734Z,30.54
2019-06-10T09:55:04.608Z,30.53
2019-06-10T09:56:04.627Z,30.66
2019-06-10T09:57:04.624Z,30.84
2019-06-10T09:58:04.622Z,30.55
2019-06-10T09:59:04.628Z,30.27
2019-06-10T10:00:04.633Z,30.06
2019-06-10T10:01:04.858Z,29.88
2019-06-10T10:02:07.060Z,29.78
2019-06-10T10:03:04.728Z,29.78
2019-06-10T10:04:04.860Z,29.71
2019-06-10T10:05:04.666Z,29.60
2019-06-10T10:06:14.602Z,29.44
2019-06-10T10:07:04.676Z,29.27
2019-06-10T10:08:04.683Z,29.14
2019-06-10T10:09:04.686Z,29.07
2019-06-10T10:10:05.511Z,28.93
2019-06-10T10:11:04.704Z,28.84
2019-06-10T10:12:04.704Z,28.75
2019-06-10T10:13:04.710Z,28.84
2019-06-10T10:14:08.429Z,28.82
2019-06-10T10:15:22.639Z,28.85
2019-06-10T10:16:04.725Z,28.84
2019-06-10T10:17:05.045Z,28.85
2019-06-10T10:18:04.768Z,28.93
2019-06-10T10:19:05.482Z,28.96
2019-06-10T10:20:04.747Z,28.94
2019-06-10T10:21:04.792Z,28.96
2019-06-10T10:22:04.780Z,28.97
2019-06-10T10:23:04.766Z,28.94
2019-06-10T10:24:10.201Z,29.10
2019-06-10T10:25:04.777Z,29.19
2019-06-10T10:26:04.784Z,29.53
2019-06-10T10:27:09.072Z,29.73
2019-06-10T10:28:04.791Z,30.09
2019-06-10T10:29:05.174Z,30.54
2019-06-10T10:30:04.802Z,30.80
2019-06-10T10:31:04.875Z,31.00
2019-06-10T10:32:04.811Z,31.31
2019-06-10T10:33:04.820Z,31.43
2019-06-10T10:34:04.825Z,31.44
2019-06-10T10:35:04.833Z,31.52
2019-06-10T10:36:04.837Z,31.46
2019-06-10T10:37:04.844Z,31.42
2019-06-10T10:38:04.853Z,31.29
2019-06-10T10:39:04.857Z,31.06
2019-06-10T10:40:04.863Z,31.02
2019-06-10T10:41:05.068Z,30.97
2019-06-10T10:42:04.877Z,30.96
2019-06-10T10:43:22.495Z,30.84
2019-06-10T10:44:04.894Z,30.80
2019-06-10T10:45:04.897Z,30.65
2019-06-10T10:46:05.738Z,30.54
2019-06-10T10:47:04.911Z,30.44
2019-06-10T10:48:04.933Z,30.44
2019-06-10T10:49:04.919Z,30.43
2019-06-10T10:50:04.924Z,30.28
2019-06-10T10:51:04.931Z,30.37
2019-06-10T10:52:04.937Z,30.28
2019-06-10T10:53:04.943Z,30.28
2019-06-10T10:54:29.736Z,30.27
2019-06-10T10:55:07.022Z,30.28
2019-06-10T10:56:04.962Z,30.35
2019-06-10T10:57:04.969Z,30.39
2019-06-10T10:58:04.976Z,30.50
2019-06-10T10:59:04.983Z,30.73
2019-06-10T11:00:04.988Z,30.83
2019-06-10T11:01:05.187Z,30.90
2019-06-10T11:02:04.999Z,30.90
2019-06-10T11:03:05.004Z,31.06
2019-06-10T11:04:05.013Z,31.22
2019-06-10T11:05:05.018Z,31.54
2019-06-10T11:06:05.031Z,31.90
2019-06-10T11:07:05.034Z,31.99
2019-06-10T11:08:05.036Z,32.14
2019-06-10T11:09:05.043Z,31.96
2019-06-10T11:10:05.050Z,31.85
2019-06-10T11:11:05.922Z,31.87
2019-06-10T11:12:05.068Z,31.89
2019-06-10T11:13:05.071Z,31.76
2019-06-10T11:14:05.076Z,31.55
2019-06-10T11:15:05.279Z,31.34
2019-06-10T11:16:05.088Z,31.17
2019-06-10T11:17:05.095Z,30.96
2019-06-10T11:18:05.106Z,30.85
2019-06-10T11:19:05.110Z,30.70
2019-06-10T11:20:05.117Z,30.69
2019-06-10T11:21:05.421Z,30.68
2019-06-10T11:22:05.130Z,30.50
2019-06-10T11:23:05.136Z,30.39
2019-06-10T11:24:05.143Z,30.28
2019-06-10T11:25:05.164Z,30.15
2019-06-10T11:26:05.161Z,29.94
2019-06-10T11:27:05.158Z,29.93
2019-06-10T11:28:05.169Z,29.81
2019-06-10T11:29:05.173Z,29.79
2019-06-10T11:30:05.179Z,29.75
2019-06-10T11:31:05.186Z,29.76
2019-06-10T11:32:05.190Z,29.76
2019-06-10T11:33:05.197Z,29.65
2019-06-10T11:34:05.202Z,29.63
2019-06-10T11:35:05.210Z,29.56
2019-06-10T11:36:05.220Z,29.44
2019-06-10T11:37:05.243Z,29.41
2019-06-10T11:38:05.229Z,29.36
2019-06-10T11:39:05.230Z,29.22
2019-06-10T11:40:05.235Z,29.08
2019-06-10T11:41:05.246Z,29.08
2019-06-10T11:42:05.248Z,29.04
2019-06-10T11:43:05.254Z,29.10
2019-06-10T11:44:05.261Z,29.05
2019-06-10T11:45:05.264Z,29.08
2019-06-10T11:46:07.798Z,28.98
2019-06-10T11:47:05.280Z,28.94
2019-06-10T11:48:05.285Z,28.89
2019-06-10T11:49:05.284Z,29.04
2019-06-10T11:50:05.292Z,29.07
2019-06-10T11:51:05.297Z,29.10
2019-06-10T11:52:05.301Z,29.08
2019-06-10T11:53:05.308Z,29.14
2019-06-10T11:54:05.318Z,29.14
2019-06-10T11:55:14.854Z,29.14
2019-06-10T11:56:05.322Z,29.19
2019-06-10T11:57:05.327Z,29.26
2019-06-10T11:58:05.352Z,29.27
2019-06-10T11:59:09.356Z,29.27
2019-06-10T12:00:13.706Z,29.26
2019-06-10T12:01:05.353Z,29.27
2019-06-10T12:02:06.112Z,29.31
2019-06-10T12:03:05.416Z,29.39
2019-06-10T12:04:05.366Z,29.36
2019-06-10T12:05:05.370Z,29.47
2019-06-10T12:06:05.823Z,29.61
2019-06-10T12:07:05.385Z,29.65
2019-06-10T12:08:05.395Z,29.69
2019-06-10T12:09:05.391Z,29.87
2019-06-10T12:10:05.398Z,30.02
2019-06-10T12:11:05.408Z,30.12
2019-06-10T12:12:05.414Z,30.15
2019-06-10T12:13:07.302Z,30.16
2019-06-10T12:14:05.425Z,30.32
2019-06-10T12:15:05.466Z,30.31
2019-06-10T12:17:14.847Z,30.35
2019-06-10T12:17:24.684Z,30.47
2019-06-10T12:18:08.709Z,30.54
2019-06-10T12:19:05.456Z,30.55
2019-06-10T12:20:05.460Z,30.51
2019-06-10T12:21:05.487Z,30.57
2019-06-10T12:22:07.649Z,30.77
2019-06-10T12:23:05.479Z,31.12
2019-06-10T12:24:05.481Z,31.56
2019-06-10T12:25:30.400Z,32.15
2019-06-10T12:26:05.557Z,32.64
2019-06-10T12:27:05.499Z,33.22
2019-06-10T12:28:07.652Z,33.76
2019-06-10T12:29:06.002Z,34.18
2019-06-10T12:30:05.524Z,34.57
2019-06-10T12:31:07.245Z,35.00
2019-06-10T12:32:07.149Z,35.23
2019-06-10T12:33:05.827Z,35.39
2019-06-10T12:34:06.146Z,35.48
2019-06-10T12:35:05.711Z,35.27
2019-06-10T12:36:07.155Z,35.12
2019-06-10T12:37:11.050Z,34.83
2019-06-10T12:38:06.234Z,34.74
2019-06-10T12:39:10.563Z,34.89
2019-06-10T12:40:05.949Z,35.02
2019-06-10T12:41:09.678Z,35.39
2019-06-10T12:42:06.612Z,35.66
2019-06-10T12:43:07.111Z,35.86
2019-06-10T12:44:05.638Z,36.17
2019-06-10T12:45:08.447Z,36.47
2019-06-10T12:46:05.656Z,36.80
2019-06-10T12:47:07.822Z,37.17
2019-06-10T12:48:06.933Z,37.58
2019-06-10T12:49:08.567Z,37.83
2019-06-10T12:50:05.696Z,38.23
2019-06-10T12:51:09.010Z,38.45
2019-06-10T12:52:07.645Z,38.79